Terminal Aerodrome Forecast
Issued by NWS Wilmington, OH

Home | Current Version | Previous Version | Text Only | Print | Product List | Glossary On
Versions: 1 2 3 4 5 6 7 8 9 10 11 12 13 14 15 16 17 18 19 20 21 22 23 24 25
000
FTUS41 KILN 142058 AAB
TAFDAY
TAF AMD
KDAY 142058Z 1421/1518 33007KT P6SM SCT019 BKN200
     FM150200 VRB03KT P6SM OVC150
     FM151000 21004KT P6SM BKN040 OVC150
     FM151300 22010KT P6SM BKN035
     FM151600 24014G20KT P6SM BKN025=

USA.gov is the U.S. government's official web portal to all federal, state and local government web resources and services.